Time;durP1;ratioP1;P1;durP2;ratioP2;P2;SDS_P1;SDS_P2;PMS_P1;PMS_P2;Temp;Humidity;BMP_temperature;BMP_pressure;BME280_temperature;BME280_humidity;BME280_pressure;Samples;Min_cycle;Max_cycle;Signal;HPM_P1;HPM_P2
2022/10/08 00:01:27;;;;;;;0.50;0.50;;;;;;;8.04;70.64;94162.31;5079859;28;20048;-35
2022/10/08 00:03:53;;;;;;;1.40;1.35;;;;;;;8.04;70.75;94159.56;5078462;28;20028;-35
2022/10/08 00:06:28;;;;;;;0.45;0.45;;;;;;;8.15;70.56;94157.47;5083157;28;20051;-35
2022/10/08 00:09:05;;;;;;;0.43;0.43;;;;;;;8.18;70.14;94150.19;5082450;28;20031;-36
2022/10/08 00:11:35;;;;;;;4.03;1.38;;;;;;;8.17;70.03;94148.69;5081495;28;20428;-35
2022/10/08 00:14:01;;;;;;;0.47;0.47;;;;;;;8.19;69.98;94143.41;5076699;28;20112;-36
2022/10/08 00:16:32;;;;;;;1.85;1.40;;;;;;;7.93;70.19;94143.19;5082718;28;20029;-36
2022/10/08 00:19:00;;;;;;;1.92;1.83;;;;;;;8.08;70.52;94141.53;5081238;28;20048;-36
2022/10/08 00:21:29;;;;;;;0.90;0.63;;;;;;;8.02;70.62;94142.84;5073094;28;20454;-36
2022/10/08 00:23:54;;;;;;;2.60;1.90;;;;;;;7.99;70.59;94141.16;5082613;28;20090;-35
2022/10/08 00:26:23;;;;;;;2.10;1.10;;;;;;;7.85;71.08;94139.53;5080138;28;20027;-35
2022/10/08 00:28:49;;;;;;;0.88;0.88;;;;;;;8.03;70.42;94134.09;5083725;28;20110;-36
2022/10/08 00:31:19;;;;;;;1.02;1.02;;;;;;;8.05;70.71;94126.09;5084269;28;20036;-35
2022/10/08 00:33:48;;;;;;;1.15;1.15;;;;;;;8.03;70.64;94133.34;5080997;28;20036;-35
2022/10/08 00:36:13;;;;;;;1.20;1.10;;;;;;;7.87;70.70;94117.75;5085050;28;20061;-35
2022/10/08 00:38:39;;;;;;;1.05;1.05;;;;;;;7.92;69.35;94120.47;5085396;28;20029;-36
2022/10/08 00:41:06;;;;;;;0.60;0.60;;;;;;;7.79;70.27;94119.59;5075856;28;20031;-35
2022/10/08 00:43:42;;;;;;;0.40;0.40;;;;;;;7.91;70.73;94118.97;5070976;28;20035;-35
2022/10/08 00:46:21;;;;;;;0.88;0.85;;;;;;;7.78;70.20;94118.09;5060761;28;20021;-36
2022/10/08 00:48:49;;;;;;;0.63;0.63;;;;;;;7.84;69.52;94122.28;5088650;28;20112;-35
2022/10/08 00:51:14;;;;;;;0.93;0.93;;;;;;;7.75;70.30;94125.38;5088316;28;20028;-36
2022/10/08 00:53:40;;;;;;;2.38;2.20;;;;;;;7.73;70.50;94116.91;5084483;28;20024;-35
2022/10/08 00:56:05;;;;;;;0.68;0.68;;;;;;;7.65;70.39;94115.97;5081542;28;20027;-35
2022/10/08 00:58:31;;;;;;;2.10;1.05;;;;;;;7.61;71.08;94110.75;5068814;28;20044;-36
2022/10/08 01:00:57;;;;;;;1.52;1.42;;;;;;;7.54;70.93;94116.81;5064821;28;20039;-36
2022/10/08 01:03:22;;;;;;;0.68;0.68;;;;;;;7.69;70.33;94099.22;5081323;28;20552;-36
2022/10/08 01:05:54;;;;;;;0.35;0.35;;;;;;;7.65;70.52;94105.72;5084529;28;20032;-35
2022/10/08 01:08:31;;;;;;;1.50;1.40;;;;;;;7.37;71.88;94107.22;5082600;28;20035;-36
2022/10/08 01:11:07;;;;;;;0.82;0.82;;;;;;;7.47;72.07;94103.63;5087130;28;20032;-36
2022/10/08 01:13:57;;;;;;;0.98;0.98;;;;;;;7.55;71.52;94103.81;5083856;28;20046;-35
2022/10/08 01:16:31;;;;;;;2.60;1.77;;;;;;;7.44;69.97;94109.41;5020195;28;20108;-35
2022/10/08 01:19:07;;;;;;;0.85;0.85;;;;;;;7.35;70.14;94104.25;5087892;28;20044;-35
2022/10/08 01:21:54;;;;;;;0.98;0.98;;;;;;;7.35;70.40;94098.75;5076959;28;20048;-35
2022/10/08 01:27:43;;;;;;;2.08;1.75;;;;;;;6.85;71.71;94090.88;5077063;28;20132;-35
2022/10/08 01:30:14;;;;;;;3.03;2.80;;;;;;;6.91;72.00;94086.09;5067722;28;20036;-36
2022/10/08 01:32:47;;;;;;;1.55;1.45;;;;;;;6.95;71.61;94072.84;5065880;28;20039;-35
2022/10/08 01:35:26;;;;;;;1.17;1.15;;;;;;;7.04;71.80;94075.25;5064794;28;20110;-36
2022/10/08 01:37:54;;;;;;;0.85;0.85;;;;;;;7.11;71.37;94080.22;5062331;28;20032;-36
2022/10/08 01:40:26;;;;;;;0.35;0.35;;;;;;;6.92;71.77;94073.88;5062296;28;20572;-36
2022/10/08 01:42:52;;;;;;;6.07;1.88;;;;;;;6.78;72.18;94069.47;5062748;28;20063;-35
2022/10/08 01:45:23;;;;;;;6.32;2.10;;;;;;;6.77;71.53;94059.75;5062222;28;20028;-36
2022/10/08 01:47:50;;;;;;;1.85;1.70;;;;;;;6.88;71.03;94068.66;5084382;28;20052;-35
2022/10/08 01:50:30;;;;;;;1.60;0.90;;;;;;;6.62;71.74;94056.59;5084833;28;20059;-36
2022/10/08 01:53:10;;;;;;;0.75;0.75;;;;;;;6.73;71.83;94056.53;5069530;28;20032;-36
2022/10/08 01:55:39;;;;;;;0.77;0.77;;;;;;;6.74;71.77;94077.22;5065282;28;20115;-35
2022/10/08 01:58:30;;;;;;;0.68;0.68;;;;;;;6.84;72.43;94070.19;5082219;28;20504;-35
2022/10/08 02:01:01;;;;;;;0.80;0.80;;;;;;;6.78;72.27;94063.97;5060845;28;20094;-35
2022/10/08 02:03:26;;;;;;;0.63;0.63;;;;;;;6.50;73.08;94066.88;5087069;28;20102;-35
2022/10/08 02:05:53;;;;;;;2.28;2.08;;;;;;;6.59;73.08;94063.84;5082231;28;20239;-35
2022/10/08 02:08:20;;;;;;;1.25;1.17;;;;;;;6.57;73.13;94063.63;5075320;28;20117;-36
2022/10/08 02:10:46;;;;;;;0.55;0.55;;;;;;;6.63;72.56;94060.81;5069679;28;20479;-35
2022/10/08 02:13:11;;;;;;;0.70;0.68;;;;;;;6.82;72.01;94069.94;5065868;28;20020;-36
2022/10/08 02:15:42;;;;;;;0.40;0.40;;;;;;;6.77;72.18;94068.72;5073347;28;20027;-35
2022/10/08 02:18:15;;;;;;;0.77;0.77;;;;;;;6.86;71.70;94071.16;5070156;28;20117;-35
2022/10/08 02:20:49;;;;;;;0.30;0.30;;;;;;;6.75;72.28;94070.50;5070903;28;20020;-34
2022/10/08 02:23:30;;;;;;;0.80;0.80;;;;;;;6.51;72.96;94062.91;5069177;28;20059;-35
2022/10/08 02:25:56;;;;;;;3.22;0.63;;;;;;;6.68;72.82;94071.03;5067556;28;20730;-35
2022/10/08 02:28:30;;;;;;;0.47;0.47;;;;;;;6.65;72.94;94070.03;5081881;28;20024;-35
2022/10/08 02:31:10;;;;;;;0.60;0.60;;;;;;;6.65;72.14;94061.81;5083464;28;20086;-35
2022/10/08 02:33:39;;;;;;;1.52;1.42;;;;;;;6.83;71.07;94063.94;5090837;28;20055;-35
2022/10/08 02:36:07;;;;;;;0.95;0.95;;;;;;;6.73;71.61;94064.78;5071328;28;20027;-36
2022/10/08 02:38:40;;;;;;;0.40;0.40;;;;;;;6.69;71.77;94069.78;5070691;28;20036;-36
2022/10/08 02:41:07;;;;;;;0.57;0.57;;;;;;;6.59;71.97;94054.88;5059246;28;20105;-36
2022/10/08 02:43:36;;;;;;;0.30;0.30;;;;;;;6.55;73.23;94048.91;5070323;28;20040;-36
2022/10/08 02:46:17;;;;;;;0.90;0.90;;;;;;;6.50;73.76;94055.91;5067592;28;20566;-36
2022/10/08 02:48:55;;;;;;;1.33;1.33;;;;;;;6.46;73.78;94038.97;5084222;28;20040;-36
2022/10/08 02:51:20;;;;;;;1.10;1.10;;;;;;;6.41;73.67;94055.50;5082882;28;20023;-36
2022/10/08 02:53:48;;;;;;;1.15;0.77;;;;;;;6.51;73.43;94057.41;5081375;28;20054;-36
2022/10/08 02:56:26;;;;;;;0.43;0.43;;;;;;;6.53;73.68;94043.94;5085917;28;20063;-35
2022/10/08 02:58:52;;;;;;;1.45;1.35;;;;;;;6.41;74.31;94044.50;5063980;28;20110;-36
2022/10/08 03:01:27;;;;;;;1.15;1.15;;;;;;;6.32;74.95;94047.56;5062102;28;20500;-36
2022/10/08 03:03:57;;;;;;;0.30;0.30;;;;;;;6.38;74.55;94053.75;5085813;28;20067;-36
2022/10/08 03:06:25;;;;;;;0.73;0.73;;;;;;;6.42;74.33;94049.47;5080139;28;20104;-35
2022/10/08 03:08:52;;;;;;;0.50;0.50;;;;;;;6.51;74.27;94053.91;5062550;28;20052;-35
2022/10/08 03:11:17;;;;;;;0.35;0.35;;;;;;;6.34;75.15;94047.78;5087049;28;20028;-36
2022/10/08 03:13:45;;;;;;;0.93;0.93;;;;;;;6.28;75.77;94050.53;5068012;28;20545;-36
2022/10/08 03:16:13;;;;;;;0.30;0.30;;;;;;;6.33;75.43;94038.81;5067746;28;20024;-36
2022/10/08 03:18:39;;;;;;;0.73;0.73;;;;;;;6.38;74.98;94046.28;5058434;28;20051;-36
2022/10/08 03:21:07;;;;;;;0.45;0.45;;;;;;;6.33;74.45;94049.03;5065091;28;20028;-36
2022/10/08 03:23:32;;;;;;;0.80;0.80;;;;;;;6.25;74.27;94048.84;5066020;28;20036;-36
2022/10/08 03:25:57;;;;;;;0.55;0.55;;;;;;;6.39;74.35;94052.50;5085558;28;20484;-35
2022/10/08 03:28:23;;;;;;;0.47;0.47;;;;;;;6.42;74.02;94046.00;5079773;28;20016;-35
2022/10/08 03:30:48;;;;;;;1.65;1.27;;;;;;;6.46;74.02;94047.22;5085318;28;20032;-35
2022/10/08 03:33:14;;;;;;;0.60;0.60;;;;;;;6.29;75.45;94051.28;5086639;28;20024;-35
2022/10/08 03:35:46;;;;;;;1.38;1.33;;;;;;;6.42;75.05;94043.25;5089068;28;20024;-35
2022/10/08 03:38:16;;;;;;;3.90;1.65;;;;;;;6.39;74.80;94041.53;5077028;28;20021;-35
2022/10/08 03:40:42;;;;;;;0.50;0.50;;;;;;;6.44;74.65;94040.75;5076714;28;20028;-35
2022/10/08 03:43:08;;;;;;;1.30;1.27;;;;;;;6.51;74.47;94043.69;5080627;28;20111;-35
2022/10/08 03:45:33;;;;;;;0.50;0.50;;;;;;;6.50;73.48;94050.44;5078079;28;20062;-36
2022/10/08 03:47:59;;;;;;;0.68;0.68;;;;;;;6.50;73.39;94042.19;5081899;28;20034;-36
2022/10/08 03:50:24;;;;;;;1.17;0.60;;;;;;;6.63;73.15;94041.63;5082124;28;20480;-35
2022/10/08 03:52:49;;;;;;;0.85;0.85;;;;;;;6.75;73.05;94054.03;5082795;28;20400;-36
2022/10/08 03:55:15;;;;;;;4.15;2.28;;;;;;;6.75;73.27;94045.78;5075302;28;20056;-36
2022/10/08 03:57:40;;;;;;;4.10;2.40;;;;;;;6.56;73.21;94036.69;5086166;28;20028;-36
2022/10/08 04:00:07;;;;;;;0.57;0.57;;;;;;;6.74;72.95;94053.28;5088974;28;20024;-36
2022/10/08 04:02:32;;;;;;;0.65;0.65;;;;;;;6.65;73.42;94056.31;5071876;28;20523;-36
2022/10/08 04:04:58;;;;;;;0.68;0.68;;;;;;;6.64;73.37;94054.09;5089193;28;20053;-36
2022/10/08 04:07:23;;;;;;;0.63;0.60;;;;;;;6.68;72.72;94055.31;5080604;28;20032;-36
2022/10/08 04:14:24;;;;;;;5.18;2.65;;;;;;;6.66;71.89;94049.59;5010779;27;1635965;-36
2022/10/08 04:16:49;;;;;;;1.77;1.73;;;;;;;6.72;72.37;94055.03;5066326;28;20071;-35
2022/10/08 04:19:16;;;;;;;2.25;2.15;;;;;;;6.57;73.43;94049.16;5071263;28;20036;-35
2022/10/08 04:21:42;;;;;;;0.95;0.95;;;;;;;6.60;73.42;94048.88;5066364;28;20040;-35
2022/10/08 04:24:08;;;;;;;2.20;2.10;;;;;;;6.41;74.34;94047.25;5062406;28;20135;-35
2022/10/08 04:26:33;;;;;;;2.20;2.10;;;;;;;6.31;75.54;94043.31;5065088;28;20027;-35
2022/10/08 04:28:59;;;;;;;2.97;1.20;;;;;;;6.10;75.92;94001.81;5061438;28;20021;-35
2022/10/08 04:31:24;;;;;;;1.15;1.15;;;;;;;6.35;75.84;94019.84;5064722;28;20036;-35
2022/10/08 04:33:50;;;;;;;1.33;1.33;;;;;;;6.57;75.73;94043.66;5057822;28;20079;-35
2022/10/08 04:36:21;;;;;;;2.78;2.60;;;;;;;6.68;75.08;94049.06;5065559;28;20027;-35
2022/10/08 04:38:47;;;;;;;1.83;1.75;;;;;;;6.57;74.32;94043.66;5064258;28;20020;-35
2022/10/08 04:41:38;;;;;;;1.50;1.45;;;;;;;6.62;73.47;94049.13;5061265;28;20069;-35
2022/10/08 04:44:04;;;;;;;7.18;1.95;;;;;;;6.73;73.18;94037.31;5057767;28;20056;-35
2022/10/08 04:46:29;;;;;;;0.95;0.95;;;;;;;6.62;73.86;94040.16;5060747;28;20063;-35
2022/10/08 04:48:55;;;;;;;2.47;2.28;;;;;;;6.60;73.90;94015.97;5061769;28;20032;-35
2022/10/08 04:51:23;;;;;;;3.30;3.10;;;;;;;6.80;73.67;94043.00;5061525;28;20032;-35
2022/10/08 04:53:49;;;;;;;1.40;1.40;;;;;;;6.69;74.25;94040.31;5065244;28;20028;-35
2022/10/08 04:56:20;;;;;;;3.05;2.00;;;;;;;6.76;74.57;94044.53;5066402;28;20041;-36
2022/10/08 04:58:46;;;;;;;1.33;1.25;;;;;;;6.68;74.93;94049.06;5058957;28;20040;-35
2022/10/08 05:01:14;;;;;;;1.38;1.35;;;;;;;6.61;74.40;94044.13;5065454;28;20108;-35
2022/10/08 05:03:42;;;;;;;2.00;1.90;;;;;;;6.81;74.01;94058.22;5066260;28;20028;-35
2022/10/08 05:06:08;;;;;;;2.95;2.20;;;;;;;6.88;73.41;94057.69;5058919;28;20064;-36
2022/10/08 05:08:34;;;;;;;2.72;2.53;;;;;;;6.91;72.98;94053.16;5063518;28;20416;-35
2022/10/08 05:11:00;;;;;;;2.08;1.98;;;;;;;6.94;73.35;94057.63;5064556;28;20123;-35
2022/10/08 05:13:25;;;;;;;1.58;1.48;;;;;;;6.96;73.05;94051.63;5069284;28;20060;-35
2022/10/08 05:15:51;;;;;;;2.03;1.92;;;;;;;6.96;73.25;94062.59;5077157;28;20063;-35
2022/10/08 05:18:16;;;;;;;1.08;1.08;;;;;;;6.88;73.38;94056.94;5086936;28;20036;-35
2022/10/08 05:20:42;;;;;;;3.75;3.50;;;;;;;6.90;73.86;94048.94;5085351;28;20036;-36
2022/10/08 05:23:08;;;;;;;3.25;2.03;;;;;;;6.99;74.05;94056.09;5084532;28;20488;-36
2022/10/08 05:25:33;;;;;;;4.45;4.05;;;;;;;7.05;73.77;94054.06;5073185;28;20115;-36
2022/10/08 05:28:00;;;;;;;2.05;1.95;;;;;;;7.19;73.98;94064.66;5069729;28;20052;-35
2022/10/08 05:30:26;;;;;;;2.80;2.63;;;;;;;7.33;73.11;94058.06;5064133;28;20119;-35
2022/10/08 05:32:51;;;;;;;1.88;1.85;;;;;;;7.25;73.40;94059.13;5070960;28;20067;-35
2022/10/08 05:35:17;;;;;;;5.40;1.58;;;;;;;7.19;73.68;94053.69;5070710;28;20398;-35
2022/10/08 05:37:42;;;;;;;2.65;2.45;;;;;;;7.43;73.31;94050.97;5053158;28;20067;-35
2022/10/08 05:40:08;;;;;;;4.40;3.25;;;;;;;7.54;72.78;94050.13;5064791;28;20073;-36
2022/10/08 05:42:34;;;;;;;3.28;2.97;;;;;;;7.49;73.78;94053.69;5072647;28;20503;-36
2022/10/08 05:44:59;;;;;;;3.92;3.30;;;;;;;7.58;73.89;94039.56;5067074;28;20133;-36
2022/10/08 05:47:25;;;;;;;2.53;2.42;;;;;;;7.51;74.44;94046.38;5072861;28;20528;-36
2022/10/08 05:49:50;;;;;;;1.35;1.35;;;;;;;7.74;74.29;94054.41;5071703;28;20107;-36
2022/10/08 05:52:16;;;;;;;2.58;2.38;;;;;;;7.72;74.57;94062.44;5072293;28;20017;-36
2022/10/08 05:54:41;;;;;;;4.95;4.57;;;;;;;8.00;74.55;94051.88;5071462;28;20082;-36
2022/10/08 05:57:07;;;;;;;2.53;2.38;;;;;;;8.04;74.06;94063.34;5071930;28;20028;-36
2022/10/08 05:59:32;;;;;;;3.05;2.85;;;;;;;8.19;73.97;94055.41;5071861;28;20086;-36
2022/10/08 06:01:58;;;;;;;4.22;3.63;;;;;;;8.35;74.03;94058.00;5074478;28;20090;-36
2022/10/08 06:04:23;;;;;;;4.47;3.25;;;;;;;8.60;73.44;94055.19;5072176;28;20036;-36
2022/10/08 06:06:49;;;;;;;6.75;6.25;;;;;;;9.01;71.98;94056.31;5071107;28;20556;-36
2022/10/08 06:09:17;;;;;;;10.55;8.90;;;;;;;9.35;70.87;94051.03;5071685;28;20056;-36
2022/10/08 06:11:42;;;;;;;11.55;4.90;;;;;;;10.18;69.04;94054.31;5071417;28;20448;-36
2022/10/08 06:14:10;;;;;;;6.30;5.53;;;;;;;11.18;66.22;94050.13;5071005;28;20135;-36
2022/10/08 06:16:36;;;;;;;5.25;4.88;;;;;;;12.46;61.75;94033.75;5071458;28;20054;-40
2022/10/08 06:19:03;;;;;;;14.52;6.35;;;;;;;13.88;58.36;94048.50;5068058;28;20025;-42
2022/10/08 06:21:29;;;;;;;4.53;3.30;;;;;;;14.90;54.79;94051.44;5062129;28;20025;-41
2022/10/08 06:24:13;;;;;;;5.30;4.57;;;;;;;15.98;52.33;94045.38;5063418;28;20063;-41
2022/10/08 06:26:40;;;;;;;4.43;4.03;;;;;;;16.84;50.13;94046.22;5063430;28;20111;-36
2022/10/08 06:29:09;;;;;;;7.18;5.32;;;;;;;17.59;48.35;94036.84;5066546;28;20744;-36
2022/10/08 06:31:35;;;;;;;;;;;;;;;18.28;46.08;94042.09;5046056;28;20029;-36
2022/10/08 06:34:02;;;;;;;9.00;4.53;;;;;;;18.79;45.32;94039.69;5060559;28;20439;-37
2022/10/08 06:36:28;;;;;;;5.57;3.83;;;;;;;19.25;44.23;94036.69;5045449;28;20039;-36
2022/10/08 06:38:58;;;;;;;6.00;4.15;;;;;;;19.69;43.36;94039.09;5067434;28;20400;-36
2022/10/08 06:41:25;;;;;;;3.97;3.60;;;;;;;19.86;42.90;94022.09;5068248;28;20059;-36
2022/10/08 06:43:50;;;;;;;7.95;4.18;;;;;;;20.09;42.01;94036.31;5072244;28;20019;-36
2022/10/08 06:46:17;;;;;;;5.05;3.83;;;;;;;20.32;42.05;94030.13;5063388;28;20028;-36
2022/10/08 06:48:43;;;;;;;3.42;3.22;;;;;;;20.56;41.81;94031.03;5070042;28;20093;-37
2022/10/08 06:51:14;;;;;;;3.53;3.20;;;;;;;20.50;42.23;94031.38;5066895;28;20029;-37
2022/10/08 06:53:40;;;;;;;2.70;2.50;;;;;;;20.72;42.19;94037.72;5069249;28;20048;-37
2022/10/08 06:56:09;;;;;;;2.92;2.42;;;;;;;20.87;42.48;94029.63;5063556;28;20583;-37
2022/10/08 06:58:35;;;;;;;2.00;1.90;;;;;;;20.90;42.19;94027.66;5065832;28;20029;-36
2022/10/08 07:01:05;;;;;;;1.77;1.65;;;;;;;20.99;42.93;94033.22;5068737;28;20032;-37
2022/10/08 07:03:30;;;;;;;2.92;2.65;;;;;;;21.24;42.30;94029.91;5067116;28;20020;-36
2022/10/08 07:05:59;;;;;;;0.93;0.93;;;;;;;21.36;41.83;94033.50;5074191;28;20404;-36
2022/10/08 07:08:25;;;;;;;0.50;0.50;;;;;;;21.62;39.33;94031.59;5068343;28;20024;-36
2022/10/08 07:10:50;;;;;;;1.40;0.93;;;;;;;21.85;40.66;94034.47;5065756;28;20020;-36
2022/10/08 07:13:16;;;;;;;0.60;0.60;;;;;;;22.00;40.42;94031.19;5070141;28;20048;-36
2022/10/08 07:15:41;;;;;;;0.65;0.65;;;;;;;22.26;40.60;94035.56;5070313;28;20062;-36
2022/10/08 07:18:10;;;;;;;3.60;0.88;;;;;;;22.28;38.76;94044.16;5063561;28;20016;-37
2022/10/08 07:20:36;;;;;;;1.20;1.10;;;;;;;22.00;39.31;94031.19;5068091;28;20481;-37
2022/10/08 07:23:01;;;;;;;1.65;0.82;;;;;;;21.60;41.38;94031.47;5060427;28;20024;-36
2022/10/08 07:25:26;;;;;;;1.38;0.63;;;;;;;21.33;40.47;94031.16;5060536;28;20528;-36
2022/10/08 07:27:52;;;;;;;0.65;0.65;;;;;;;21.43;41.22;94026.19;5066675;28;20444;-36
2022/10/08 07:30:17;;;;;;;0.60;0.60;;;;;;;21.18;40.93;94026.00;5067250;28;20028;-36
2022/10/08 07:32:43;;;;;;;0.47;0.47;;;;;;;21.33;40.61;94031.88;5066988;28;20099;-36
2022/10/08 07:35:09;;;;;;;0.98;0.73;;;;;;;21.32;40.93;94024.06;5058594;28;20507;-36
2022/10/08 07:37:34;;;;;;;1.17;0.82;;;;;;;21.21;40.47;94019.16;5069701;28;20032;-36
2022/10/08 07:39:59;;;;;;;0.93;0.70;;;;;;;21.33;40.12;94025.56;5071941;28;20028;-36
2022/10/08 07:42:25;;;;;;;1.33;1.23;;;;;;;21.28;40.71;94018.19;5065405;28;20484;-36
2022/10/08 07:44:51;;;;;;;0.50;0.50;;;;;;;20.82;41.25;94013.84;5066576;28;20028;-36
2022/10/08 07:47:17;;;;;;;0.65;0.65;;;;;;;21.16;42.19;94020.25;5065436;28;20785;-36
2022/10/08 07:49:42;;;;;;;1.75;1.65;;;;;;;21.58;42.26;94011.69;5066762;28;20032;-36
2022/10/08 07:52:08;;;;;;;0.73;0.73;;;;;;;21.92;40.56;94016.63;5062561;28;20032;-36
2022/10/08 07:54:33;;;;;;;0.63;0.63;;;;;;;22.02;39.31;94013.69;5067812;28;20024;-36
2022/10/08 07:57:00;;;;;;;0.52;0.52;;;;;;;22.36;37.32;94007.31;5064991;28;20855;-36
2022/10/08 07:59:27;;;;;;;4.18;0.60;;;;;;;21.93;36.93;93995.63;5059969;28;20041;-36
2022/10/08 08:01:52;;;;;;;0.45;0.45;;;;;;;22.34;36.46;94007.94;5065501;28;20032;-36
2022/10/08 08:04:18;;;;;;;0.40;0.40;;;;;;;22.44;36.26;93991.66;5067240;28;20097;-36
2022/10/08 08:06:48;;;;;;;0.47;0.47;;;;;;;22.86;33.92;94001.13;5066572;28;20021;-36
2022/10/08 08:09:13;;;;;;;0.30;0.30;;;;;;;22.41;36.02;94000.59;5067562;28;20116;-36
2022/10/08 08:11:39;;;;;;;1.55;0.52;;;;;;;22.67;34.84;94004.22;5061762;28;20038;-36
2022/10/08 08:14:06;;;;;;;0.43;0.43;;;;;;;22.59;34.50;93999.59;5060429;28;20118;-36
2022/10/08 08:16:31;;;;;;;0.55;0.55;;;;;;;22.83;35.18;93991.06;5061914;28;20032;-36
2022/10/08 08:19:00;;;;;;;0.75;0.75;;;;;;;22.89;36.20;93983.00;5067641;28;20029;-36
2022/10/08 08:21:30;;;;;;;0.25;0.22;;;;;;;23.11;36.22;93987.78;5066391;28;20036;-37
2022/10/08 08:23:57;;;;;;;0.52;0.52;;;;;;;23.28;36.57;93995.06;5066443;28;20036;-36
2022/10/08 08:26:25;;;;;;;0.68;0.68;;;;;;;23.58;34.50;93990.38;5059849;28;20501;-34
2022/10/08 08:28:53;;;;;;;0.47;0.47;;;;;;;23.94;35.40;93993.06;5061129;28;20039;-35
2022/10/08 08:31:29;;;;;;;0.10;0.10;;;;;;;24.21;35.13;93986.75;5062703;28;20416;-35
2022/10/08 08:34:01;;;;;;;1.70;0.52;;;;;;;24.09;34.01;93989.66;5063160;28;20028;-35
2022/10/08 08:36:31;;;;;;;0.73;0.73;;;;;;;24.56;34.15;93989.25;5063279;28;20028;-35
2022/10/08 08:38:57;;;;;;;0.15;0.15;;;;;;;23.83;34.20;93990.34;5065459;28;20566;-34
2022/10/08 08:41:49;;;;;;;1.00;0.63;;;;;;;23.54;34.47;93990.16;5059586;28;20028;-35
2022/10/08 08:44:21;;;;;;;0.73;0.73;;;;;;;23.58;34.18;93973.47;5031565;28;20063;-37
2022/10/08 08:46:54;;;;;;;0.68;0.68;;;;;;;23.85;33.39;93982.72;5048457;28;20036;-37
2022/10/08 08:49:41;;;;;;;0.40;0.40;;;;;;;23.60;35.78;93971.50;5065650;28;20033;-37
2022/10/08 08:52:08;;;;;;;0.47;0.47;;;;;;;23.66;36.33;93973.91;5061150;28;20064;-36
2022/10/08 08:54:33;;;;;;;0.35;0.35;;;;;;;23.91;36.56;93968.94;5048962;28;20036;-37
2022/10/08 08:57:33;;;;;;;0.65;0.65;;;;;;;23.93;36.09;93971.84;5066800;28;20025;-37
2022/10/08 09:00:03;;;;;;;0.40;0.40;;;;;;;23.92;36.00;93981.69;5018392;28;20044;-35
2022/10/08 09:02:38;;;;;;;0.35;0.35;;;;;;;23.97;35.49;93974.16;5070090;28;20033;-35
2022/10/08 09:05:10;;;;;;;0.20;0.20;;;;;;;24.07;34.25;93969.06;5052597;28;20043;-35
2022/10/08 09:07:45;;;;;;;0.13;0.13;;;;;;;24.31;32.77;93969.59;5049154;28;20187;-37
2022/10/08 09:10:16;;;;;;;0.45;0.40;;;;;;;24.25;32.97;93963.66;5070730;28;20064;-37
2022/10/08 09:12:42;;;;;;;0.77;0.77;;;;;;;24.29;33.33;93961.03;5052991;28;20083;-37
2022/10/08 09:15:19;;;;;;;1.55;1.35;;;;;;;24.27;35.85;93963.75;5070468;28;20032;-37
2022/10/08 09:17:45;;;;;;;0.73;0.63;;;;;;;24.27;33.72;93963.75;5066867;28;20115;-37
2022/10/08 09:20:16;;;;;;;4.32;3.92;;;;;;;24.74;31.83;93953.44;5044906;28;20069;-37
2022/10/08 09:22:41;;;;;;;0.50;0.50;;;;;;;24.78;33.64;93953.66;5044204;28;20016;-37
2022/10/08 09:25:14;;;;;;;0.47;0.47;;;;;;;25.25;33.13;93953.84;5055160;28;20033;-37
2022/10/08 09:27:53;;;;;;;0.75;0.75;;;;;;;25.37;31.81;93955.13;5073432;28;20048;-37
2022/10/08 09:30:27;;;;;;;1.08;0.55;;;;;;;25.19;30.85;93954.25;5069780;28;20170;-36
2022/10/08 09:32:54;;;;;;;0.22;0.22;;;;;;;25.88;30.78;93951.84;5069763;28;20028;-37
2022/10/08 09:35:21;;;;;;;0.95;0.40;;;;;;;26.01;30.36;93946.06;5071853;28;20043;-37
2022/10/08 09:37:47;;;;;;;1.70;1.10;;;;;;;25.77;30.14;93949.94;5071322;28;20097;-37
2022/10/08 09:40:23;;;;;;;0.50;0.50;;;;;;;25.87;29.35;93950.38;5054086;28;20028;-38
2022/10/08 09:43:12;;;;;;;0.73;0.65;;;;;;;25.85;30.38;93945.34;5071056;28;20064;-37
2022/10/08 09:45:45;;;;;;;0.32;0.32;;;;;;;26.22;29.12;93937.16;5066352;28;20021;-37
2022/10/08 09:48:28;;;;;;;2.63;0.63;;;;;;;26.65;28.94;93939.69;5071382;28;20115;-35
2022/10/08 09:50:57;;;;;;;0.17;0.17;;;;;;;27.26;28.73;93936.53;5071981;28;20039;-36
2022/10/08 09:53:26;;;;;;;0.80;0.80;;;;;;;27.51;29.01;93928.34;5052436;28;20074;-35
2022/10/08 09:55:53;;;;;;;;;;;;;;;27.80;28.53;93933.00;5068967;28;20066;-36
2022/10/08 09:58:19;;;;;;;0.50;0.50;;;;;;;27.93;29.19;93929.22;5067204;28;19917;-37
2022/10/08 10:01:01;;;;;;;0.32;0.32;;;;;;;28.11;27.78;93929.91;5064774;28;20036;-37
2022/10/08 10:03:27;;;;;;;1.02;1.02;;;;;;;28.27;27.68;93916.28;5048034;28;20016;-35
2022/10/08 10:05:54;;;;;;;0.73;0.73;;;;;;;28.38;28.22;93901.06;5069012;28;20027;-35
2022/10/08 10:08:44;;;;;;;0.38;0.38;;;;;;;28.21;28.00;93909.66;5071879;28;20043;-34
2022/10/08 10:11:27;;;;;;;0.80;0.70;;;;;;;28.34;28.17;93909.44;5070145;28;20024;-34
2022/10/08 10:13:52;;;;;;;0.50;0.50;;;;;;;28.43;27.65;93905.50;5050595;28;20528;-34
2022/10/08 10:16:27;;;;;;;0.38;0.38;;;;;;;28.41;27.39;93902.56;5052934;28;20119;-35
2022/10/08 10:18:54;;;;;;;0.10;0.10;;;;;;;28.52;28.14;93906.53;5071868;28;20103;-34
2022/10/08 10:21:29;;;;;;;2.30;0.70;;;;;;;28.77;27.62;93888.19;5055132;28;20094;-34
2022/10/08 10:24:09;;;;;;;3.38;1.05;;;;;;;28.96;27.00;93885.28;5052169;28;20028;-34
2022/10/08 10:26:37;;;;;;;1.67;1.23;;;;;;;29.07;27.28;93889.91;5050033;28;20033;-34
2022/10/08 10:29:24;;;;;;;0.85;0.85;;;;;;;29.61;27.21;93885.19;5051450;28;20035;-34
2022/10/08 10:32:11;;;;;;;0.73;0.73;;;;;;;29.98;26.66;93884.19;5046934;28;20033;-34
2022/10/08 10:34:38;;;;;;;1.13;0.95;;;;;;;30.11;25.97;93883.13;5043877;28;20032;-34
2022/10/08 10:37:08;;;;;;;2.37;1.10;;;;;;;30.56;25.68;93873.66;5054484;28;20638;-35
2022/10/08 10:39:39;;;;;;;5.28;1.20;;;;;;;30.96;24.88;93880.44;5067585;28;20012;-34
2022/10/08 10:42:22;;;;;;;0.40;0.40;;;;;;;31.96;23.68;93879.22;5043595;28;20131;-34
2022/10/08 10:44:59;;;;;;;0.45;0.45;;;;;;;31.85;23.50;93882.53;5069559;28;20056;-34
2022/10/08 10:47:28;;;;;;;1.33;1.13;;;;;;;30.83;23.63;93875.81;5053564;28;20021;-35
2022/10/08 10:49:54;;;;;;;2.05;1.60;;;;;;;31.20;23.57;93877.44;5051707;28;20028;-34
2022/10/08 10:52:37;;;;;;;0.47;0.47;;;;;;;31.64;22.68;93874.94;5070747;28;20025;-34
2022/10/08 10:55:23;;;;;;;0.75;0.52;;;;;;;31.99;22.61;93871.41;5070503;28;20481;-35
2022/10/08 10:57:54;;;;;;;0.30;0.30;;;;;;;31.76;23.21;93872.31;5050911;28;20025;-35
2022/10/08 11:00:26;;;;;;;0.98;0.45;;;;;;;31.81;22.52;93860.31;5068624;28;20028;-34
2022/10/08 11:03:01;;;;;;;0.60;0.60;;;;;;;32.03;22.45;93851.50;5062919;28;20023;-35
2022/10/08 11:05:30;;;;;;;0.25;0.25;;;;;;;31.78;22.41;93852.38;5068710;28;20048;-34
2022/10/08 11:08:24;;;;;;;0.77;0.77;;;;;;;31.65;22.56;93844.97;5051492;28;20031;-34
2022/10/08 11:11:01;;;;;;;0.38;0.20;;;;;;;31.76;23.00;93843.78;5068837;28;20040;-34
2022/10/08 11:14:08;;;;;;;0.57;0.57;;;;;;;31.92;23.53;93832.69;5069601;28;20186;-34
2022/10/08 11:16:53;;;;;;;1.15;1.05;;;;;;;32.17;22.15;93832.50;5069132;28;20043;-34
2022/10/08 11:19:41;;;;;;;0.32;0.32;;;;;;;32.06;23.40;93830.13;5048745;28;20078;-34
2022/10/08 11:22:37;;;;;;;0.60;0.60;;;;;;;31.40;23.29;93826.56;5043717;28;20413;-34
2022/10/08 11:25:31;;;;;;;0.75;0.75;;;;;;;31.74;23.20;93820.88;5070211;28;20029;-34
2022/10/08 11:27:57;;;;;;;0.30;0.30;;;;;;;31.69;23.47;93819.34;5051549;28;20078;-34
2022/10/08 11:30:31;;;;;;;0.40;0.40;;;;;;;31.96;22.87;93807.09;5067276;28;20025;-34
2022/10/08 11:32:57;;;;;;;0.25;0.25;;;;;;;31.47;22.76;93813.88;5070095;28;20107;-34
2022/10/08 11:35:30;;;;;;;0.28;0.28;;;;;;;30.69;23.49;93815.56;5068311;28;20027;-34
2022/10/08 11:38:08;;;;;;;1.30;0.88;;;;;;;29.88;24.55;93821.25;5067416;28;20028;-36
2022/10/08 11:40:51;;;;;;;0.73;0.73;;;;;;;29.28;26.43;93811.69;5070087;28;20455;-36
2022/10/08 11:43:37;;;;;;;0.32;0.32;;;;;;;28.87;26.96;93803.25;5065513;28;20035;-36
2022/10/08 11:46:21;;;;;;;0.73;0.50;;;;;;;29.16;25.66;93802.75;5068440;28;20085;-36
2022/10/08 11:48:47;;;;;;;1.42;0.75;;;;;;;29.27;26.00;93787.47;5068237;28;20416;-36
2022/10/08 11:51:19;;;;;;;1.02;0.80;;;;;;;29.09;26.70;93801.09;5067890;28;20028;-35
2022/10/08 11:54:08;;;;;;;0.68;0.68;;;;;;;29.09;27.49;93798.25;5066081;28;20028;-36
2022/10/08 11:56:40;;;;;;;15.63;0.75;;;;;;;28.86;27.43;93790.44;5068363;28;20460;-34
2022/10/08 11:59:14;;;;;;;1.23;1.13;;;;;;;28.96;27.11;93785.78;5063589;28;20482;-36
2022/10/08 12:01:55;;;;;;;0.65;0.55;;;;;;;28.91;27.63;93795.56;5069255;28;20029;-36